Alex, Oklahoma
Current Conditions -  °F | °C
As of 2:35 PM on Tuesday 21 Oct 2014 (Local Time) from KOUN Reporting Station
Scattered Clouds Scattered Clouds  
Wind Chill: 81°   Ceiling: Unl
Heat Index: 81°   Visibility: 10mi
Dew Point: 61°   Wind: 6mph
Humidity: 51%   Direction: 180°S
Pressure: 30.05"   Gusts: NA
Location:  34.91°N, 97.78°W
Report Text: KOUN 211935Z AUTO 18005KT 10SM SCT049 SCT070 27/16 A3005 RMK AO2
Loading
Personal Weather Stations






























Interactive Weather Map
Tropical Storm Tracking
New forecast layout! Learn more

10-Day Weather Forecast

Advertisements
Track Severe Weather on mobile